Time;durP1;ratioP1;P1;durP2;ratioP2;P2;SDS_P1;SDS_P2;PMS_P1;PMS_P2;Temp;Humidity;BMP_temperature;BMP_pressure;BME280_temperature;BME280_humidity;BME280_pressure;Samples;Min_cycle;Max_cycle;Signal;HPM_P1;HPM_P2
2022/09/26 00:01:04;;;;;;;;;;;10.80;99.90;;;;;;4231425;28;20371;-60
2022/09/26 00:03:05;;;;;;;;;;;10.80;99.90;;;;;;4229862;28;19915;-60
2022/09/26 00:05:08;;;;;;;;;;;10.70;99.90;;;;;;4231290;28;19919;-60
2022/09/26 00:07:09;;;;;;;;;;;10.70;99.90;;;;;;4229520;28;19968;-59
2022/09/26 00:09:11;;;;;;;;;;;10.70;99.90;;;;;;4231348;28;19912;-59
2022/09/26 00:11:13;;;;;;;;;;;10.70;99.90;;;;;;4230108;28;20301;-61
2022/09/26 00:13:14;;;;;;;;;;;10.70;99.90;;;;;;4231268;28;19953;-59
2022/09/26 00:15:15;;;;;;;;;;;10.70;99.90;;;;;;4229771;28;19912;-60
2022/09/26 00:17:16;;;;;;;;;;;10.70;99.90;;;;;;4230995;28;20447;-60
2022/09/26 00:19:17;;;;;;;;;;;10.70;99.90;;;;;;4229947;28;19908;-61
2022/09/26 00:21:18;;;;;;;;;;;10.80;99.90;;;;;;4230517;28;19915;-60
2022/09/26 00:23:19;;;;;;;;;;;10.80;99.90;;;;;;4230411;28;19957;-61
2022/09/26 00:25:20;;;;;;;;;;;10.80;99.90;;;;;;4229948;28;19923;-60
2022/09/26 00:27:21;;;;;;;;;;;10.80;99.90;;;;;;4230605;28;20020;-60
2022/09/26 00:29:22;;;;;;;;;;;10.70;99.90;;;;;;4230170;28;19921;-59
2022/09/26 00:31:25;;;;;;;;;;;10.70;99.90;;;;;;4230941;28;20436;-60
2022/09/26 00:33:26;;;;;;;;;;;10.70;99.90;;;;;;4229513;28;19916;-58
2022/09/26 00:35:28;;;;;;;;;;;10.70;99.90;;;;;;4230498;28;19920;-61
2022/09/26 00:37:29;;;;;;;;;;;10.70;99.90;;;;;;4228278;27;19941;-60
2022/09/26 00:39:30;;;;;;;;;;;10.60;99.90;;;;;;4230452;28;19912;-62
2022/09/26 00:41:31;;;;;;;;;;;10.70;99.90;;;;;;4229672;28;20445;-61
2022/09/26 00:43:34;;;;;;;;;;;10.70;99.90;;;;;;4230345;28;19908;-61
2022/09/26 00:45:35;;;;;;;;;;;10.70;99.90;;;;;;4229545;28;19953;-61
2022/09/26 00:47:38;;;;;;;;;;;10.70;99.90;;;;;;4230392;28;20287;-60
2022/09/26 00:49:41;;;;;;;;;;;10.70;99.90;;;;;;4229072;28;19933;-60
2022/09/26 00:51:43;;;;;;;;;;;10.60;99.90;;;;;;4229927;28;19961;-58
2022/09/26 00:53:46;;;;;;;;;;;10.60;99.90;;;;;;4229735;28;20367;-61
2022/09/26 00:55:50;;;;;;;;;;;10.60;99.90;;;;;;4228577;28;19916;-60
2022/09/26 00:57:57;;;;;;;;;;;10.60;99.90;;;;;;4230022;28;19976;-61
2022/09/26 00:59:59;;;;;;;;;;;10.70;99.90;;;;;;4229888;28;19920;-61
2022/09/26 01:02:01;;;;;;;;;;;10.70;99.90;;;;;;4229519;28;20016;-61
2022/09/26 01:04:03;;;;;;;;;;;10.60;99.90;;;;;;4229407;27;20315;-60
2022/09/26 01:06:04;;;;;;;;;;;10.70;99.90;;;;;;4230208;28;19953;-59
2022/09/26 01:08:05;;;;;;;;;;;10.70;99.90;;;;;;4229408;28;20307;-61
2022/09/26 01:10:06;;;;;;;;;;;10.60;99.90;;;;;;4230370;28;20329;-61
2022/09/26 01:12:07;;;;;;;;;;;10.60;99.90;;;;;;4228767;28;19912;-60
2022/09/26 01:14:09;;;;;;;;;;;10.70;99.90;;;;;;4245487;27;19908;-60
2022/09/26 01:16:10;;;;;;;;;;;10.60;99.90;;;;;;4229123;28;19907;-60
2022/09/26 01:18:11;;;;;;;;;;;10.60;99.90;;;;;;4230062;28;19951;-61
2022/09/26 01:20:27;;;;;;;;;;;10.60;99.90;;;;;;4228625;28;19907;-60
2022/09/26 01:22:34;;;;;;;;;;;10.60;99.90;;;;;;4230159;28;20444;-61
2022/09/26 01:24:38;;;;;;;;;;;10.60;99.90;;;;;;4229071;28;19953;-61
2022/09/26 01:26:54;;;;;;;;;;;10.60;99.90;;;;;;4245365;27;19908;-60
2022/09/26 01:29:27;;;;;;;;;;;10.60;99.90;;;;;;4244366;27;19927;-60
2022/09/26 01:31:34;;;;;;;;;;;10.70;99.90;;;;;;4178732;28;19962;-61
2022/09/26 01:33:44;;;;;;;;;;;10.70;99.90;;;;;;4211810;28;19958;-61
2022/09/26 01:35:45;;;;;;;;;;;10.70;99.90;;;;;;4213072;28;19912;-62
2022/09/26 01:37:49;;;;;;;;;;;10.70;99.90;;;;;;4211900;28;20432;-60
2022/09/26 01:39:56;;;;;;;;;;;10.70;99.90;;;;;;4213078;28;20363;-61
2022/09/26 01:42:03;;;;;;;;;;;10.70;99.90;;;;;;4211864;28;19908;-61
2022/09/26 01:44:05;;;;;;;;;;;10.60;99.90;;;;;;4212910;28;19962;-60
2022/09/26 01:46:09;;;;;;;;;;;10.60;99.90;;;;;;4220270;28;19912;-61
2022/09/26 01:48:17;;;;;;;;;;;10.50;99.90;;;;;;4229462;28;19965;-61
2022/09/26 01:50:37;;;;;;;;;;;10.50;99.90;;;;;;4226781;28;19916;-60
2022/09/26 01:52:38;;;;;;;;;;;10.50;99.90;;;;;;4229051;28;20930;-59
2022/09/26 01:54:41;;;;;;;;;;;10.60;99.90;;;;;;4228468;28;20011;-59
2022/09/26 01:56:44;;;;;;;;;;;10.60;99.90;;;;;;4227813;28;20407;-60
2022/09/26 01:58:53;;;;;;;;;;;10.60;99.90;;;;;;4228236;28;19961;-60
2022/09/26 02:00:58;;;;;;;;;;;10.60;99.90;;;;;;4229160;28;19908;-61
2022/09/26 02:02:59;;;;;;;;;;;10.50;99.90;;;;;;4228490;28;19957;-60
2022/09/26 02:05:03;;;;;;;;;;;10.40;99.90;;;;;;4228864;28;19961;-60
2022/09/26 02:07:22;;;;;;;;;;;10.40;99.90;;;;;;4228159;28;19908;-60
2022/09/26 02:09:25;;;;;;;;;;;10.30;99.90;;;;;;4228397;28;19973;-60
2022/09/26 02:11:27;;;;;;;;;;;10.30;99.90;;;;;;4228534;28;19957;-61
2022/09/26 02:13:34;;;;;;;;;;;10.20;99.90;;;;;;4228259;28;20412;-60
2022/09/26 02:15:36;;;;;;;;;;;10.20;99.90;;;;;;4228674;28;20468;-59
2022/09/26 02:17:39;;;;;;;;;;;10.10;99.90;;;;;;4228080;28;20359;-60
2022/09/26 02:19:55;;;;;;;;;;;10.10;99.90;;;;;;4228669;28;19912;-61
2022/09/26 02:21:57;;;;;;;;;;;10.10;99.90;;;;;;4228122;28;19911;-61
2022/09/26 02:23:58;;;;;;;;;;;10.10;99.90;;;;;;4227917;27;19956;-60
2022/09/26 02:25:59;;;;;;;;;;;10.10;99.90;;;;;;4227987;28;20317;-60
2022/09/26 02:28:00;;;;;;;;;;;10.10;99.90;;;;;;4228722;28;20009;-61
2022/09/26 02:30:02;;;;;;;;;;;10.20;99.90;;;;;;4228314;28;20380;-60
2022/09/26 02:32:05;;;;;;;;;;;10.20;99.90;;;;;;4229027;28;19953;-60
2022/09/26 02:34:05;;;;;;;;;;;10.30;99.90;;;;;;4227142;28;20264;-60
2022/09/26 02:36:09;;;;;;;;;;;10.30;99.90;;;;;;4228964;28;19970;-62
2022/09/26 02:38:10;;;;;;;;;;;10.30;99.90;;;;;;4227829;28;19964;-60
2022/09/26 02:40:11;;;;;;;;;;;10.30;99.90;;;;;;4228816;28;19912;-58
2022/09/26 02:42:34;;;;;;;;;;;10.20;99.90;;;;;;4227778;28;19912;-59
2022/09/26 02:44:34;;;;;;;;;;;10.20;99.90;;;;;;4210245;28;19912;-60
2022/09/26 02:46:54;;;;;;;;;;;10.30;99.90;;;;;;4210918;28;20014;-60
2022/09/26 02:48:54;;;;;;;;;;;10.30;99.90;;;;;;4211911;28;19916;-60
2022/09/26 02:51:11;;;;;;;;;;;10.30;99.90;;;;;;4221325;28;19935;-60
2022/09/26 02:53:19;;;;;;;;;;;10.30;99.90;;;;;;4228809;28;19957;-60
2022/09/26 02:55:23;;;;;;;;;;;10.40;99.90;;;;;;4227101;28;19912;-62
2022/09/26 02:57:27;;;;;;;;;;;10.40;99.90;;;;;;4228645;28;20372;-57
2022/09/26 02:59:33;;;;;;;;;;;10.40;99.90;;;;;;4226754;28;19973;-61
2022/09/26 03:01:41;;;;;;;;;;;10.50;99.90;;;;;;4228570;28;19911;-61
2022/09/26 03:04:04;;;;;;;;;;;10.50;99.90;;;;;;4227436;28;19908;-61
2022/09/26 03:06:07;;;;;;;;;;;10.60;99.90;;;;;;4228832;28;20321;-61
2022/09/26 03:08:10;;;;;;;;;;;10.60;99.90;;;;;;4227456;28;19961;-60
2022/09/26 03:10:13;;;;;;;;;;;10.70;99.90;;;;;;4230585;28;20326;-59
2022/09/26 03:12:15;;;;;;;;;;;10.70;99.90;;;;;;4229327;28;19957;-58
2022/09/26 03:14:17;;;;;;;;;;;10.70;99.90;;;;;;4231542;28;20264;-60
2022/09/26 03:16:19;;;;;;;;;;;10.60;99.90;;;;;;4230869;28;20337;-60
2022/09/26 03:18:23;;;;;;;;;;;10.60;99.90;;;;;;4231262;28;19912;-60
2022/09/26 03:20:24;;;;;;;;;;;10.50;99.90;;;;;;4231507;28;19912;-60
2022/09/26 03:22:26;;;;;;;;;;;10.50;99.90;;;;;;4230907;28;19908;-60
2022/09/26 03:24:27;;;;;;;;;;;10.40;99.90;;;;;;4231795;28;19938;-60
2022/09/26 03:26:28;;;;;;;;;;;10.40;99.90;;;;;;4230427;28;19911;-60
2022/09/26 03:28:30;;;;;;;;;;;10.40;99.90;;;;;;4231153;28;19919;-61
2022/09/26 03:30:32;;;;;;;;;;;10.50;99.90;;;;;;4230716;28;19973;-59
2022/09/26 03:32:33;;;;;;;;;;;10.50;99.90;;;;;;4231742;28;19915;-61
2022/09/26 03:34:34;;;;;;;;;;;10.40;99.90;;;;;;4230495;28;20315;-61
2022/09/26 03:36:34;;;;;;;;;;;10.40;99.90;;;;;;4231720;28;19999;-61
2022/09/26 03:38:35;;;;;;;;;;;10.40;99.90;;;;;;4229951;28;19919;-60
2022/09/26 03:40:36;;;;;;;;;;;10.40;99.90;;;;;;4231060;28;19998;-61
2022/09/26 03:42:37;;;;;;;;;;;10.30;99.90;;;;;;4230382;28;19926;-62
2022/09/26 03:44:38;;;;;;;;;;;10.30;99.90;;;;;;4231617;27;19965;-60
2022/09/26 03:46:39;;;;;;;;;;;10.30;99.90;;;;;;4230187;28;19908;-61
2022/09/26 03:48:40;;;;;;;;;;;10.30;99.90;;;;;;4230661;28;19915;-58
2022/09/26 03:50:41;;;;;;;;;;;10.30;99.90;;;;;;4230607;28;19912;-62
2022/09/26 03:52:42;;;;;;;;;;;10.30;99.90;;;;;;4230320;28;19991;-59
2022/09/26 03:54:44;;;;;;;;;;;10.30;99.90;;;;;;4231036;28;19916;-61
2022/09/26 03:56:45;;;;;;;;;;;10.30;99.90;;;;;;4228502;28;19912;-60
2022/09/26 03:58:46;;;;;;;;;;;10.20;99.90;;;;;;4231272;28;19965;-60
2022/09/26 04:00:47;;;;;;;;;;;10.20;99.90;;;;;;4229430;28;19911;-61
2022/09/26 04:02:48;;;;;;;;;;;10.20;99.90;;;;;;4231242;27;19915;-67
2022/09/26 04:04:49;;;;;;;;;;;10.20;99.90;;;;;;4232447;27;19911;-59
2022/09/26 04:06:50;;;;;;;;;;;10.20;99.90;;;;;;4231167;27;19968;-59
2022/09/26 04:08:51;;;;;;;;;;;10.20;99.90;;;;;;4229594;28;19919;-61
2022/09/26 04:10:52;;;;;;;;;;;10.30;99.90;;;;;;4230551;28;19961;-59
2022/09/26 04:12:54;;;;;;;;;;;10.30;99.90;;;;;;4227474;28;19911;-61
2022/09/26 04:14:55;;;;;;;;;;;10.40;99.90;;;;;;4230359;28;19912;-61
2022/09/26 04:16:57;;;;;;;;;;;10.40;99.90;;;;;;4229618;28;19961;-60
2022/09/26 04:18:58;;;;;;;;;;;10.50;99.90;;;;;;4227497;28;19912;-61
2022/09/26 04:21:04;;;;;;;;;;;10.50;99.90;;;;;;4229554;28;20352;-62
2022/09/26 04:23:05;;;;;;;;;;;10.50;99.90;;;;;;4217436;28;19956;-63
2022/09/26 04:25:06;;;;;;;;;;;10.60;99.90;;;;;;4230228;28;19912;-66
2022/09/26 04:27:07;;;;;;;;;;;10.70;99.90;;;;;;4228768;28;19908;-61
2022/09/26 04:29:08;;;;;;;;;;;10.80;99.90;;;;;;4229903;28;19930;-60
2022/09/26 04:31:09;;;;;;;;;;;10.70;99.90;;;;;;4228645;27;19916;-61
2022/09/26 04:33:11;;;;;;;;;;;10.70;99.90;;;;;;4229921;28;19912;-61
2022/09/26 04:35:12;;;;;;;;;;;10.60;99.90;;;;;;4228703;28;20024;-61
2022/09/26 04:37:13;;;;;;;;;;;10.60;99.90;;;;;;4230147;28;19911;-62
2022/09/26 04:39:14;;;;;;;;;;;10.50;99.90;;;;;;4228536;28;19916;-61
2022/09/26 04:41:17;;;;;;;;;;;10.40;99.90;;;;;;4228864;27;20667;-61
2022/09/26 04:43:17;;;;;;;;;;;10.50;99.90;;;;;;4223458;28;20794;-61
2022/09/26 04:45:18;;;;;;;;;;;10.50;99.90;;;;;;4229326;28;19916;-60
2022/09/26 04:47:19;;;;;;;;;;;10.60;99.90;;;;;;4228784;28;19942;-65
2022/09/26 04:49:20;;;;;;;;;;;10.70;99.90;;;;;;4229596;28;19932;-60
2022/09/26 04:51:22;;;;;;;;;;;10.70;99.90;;;;;;4229010;27;19972;-61
2022/09/26 04:53:23;;;;;;;;;;;10.80;99.90;;;;;;4229428;28;20665;-59
2022/09/26 04:55:24;;;;;;;;;;;10.80;99.90;;;;;;4229442;28;19986;-59
2022/09/26 04:57:26;;;;;;;;;;;10.80;99.90;;;;;;4220243;27;19964;-63
2022/09/26 04:59:27;;;;;;;;;;;10.90;99.90;;;;;;4213198;28;20331;-61
2022/09/26 05:01:28;;;;;;;;;;;10.80;99.90;;;;;;4226902;27;20032;-61
2022/09/26 05:03:29;;;;;;;;;;;10.90;99.90;;;;;;4229367;28;20311;-61
2022/09/26 05:05:31;;;;;;;;;;;10.90;99.90;;;;;;4228990;28;20359;-61
2022/09/26 05:07:32;;;;;;;;;;;10.80;99.90;;;;;;4230237;27;20329;-60
2022/09/26 05:09:33;;;;;;;;;;;10.80;99.90;;;;;;4228869;27;19916;-61
2022/09/26 05:11:34;;;;;;;;;;;10.80;99.90;;;;;;4229695;28;20333;-60
2022/09/26 05:13:36;;;;;;;;;;;10.80;99.90;;;;;;4228641;28;19912;-61
2022/09/26 05:15:38;;;;;;;;;;;10.80;99.90;;;;;;4229446;28;20321;-62
2022/09/26 05:17:40;;;;;;;;;;;10.80;99.90;;;;;;4227604;27;19973;-61
2022/09/26 05:19:41;;;;;;;;;;;10.80;99.90;;;;;;4229113;28;20360;-59
2022/09/26 05:21:42;;;;;;;;;;;10.80;99.90;;;;;;4228559;28;19980;-61
2022/09/26 05:26:18;;;;;;;;;;;10.90;99.90;;;;;;4228591;28;19965;-60
2022/09/26 05:28:19;;;;;;;;;;;10.90;99.90;;;;;;4228316;27;19953;-60
2022/09/26 05:30:20;;;;;;;;;;;11.00;99.90;;;;;;4228280;28;20368;-60
2022/09/26 05:32:21;;;;;;;;;;;11.10;99.90;;;;;;4227490;28;19950;-61
2022/09/26 05:34:25;;;;;;;;;;;11.20;99.90;;;;;;4228414;28;20402;-64
2022/09/26 05:36:26;;;;;;;;;;;11.20;99.90;;;;;;4227512;27;19912;-62
2022/09/26 05:38:27;;;;;;;;;;;11.20;99.90;;;;;;4229383;28;19911;-61
2022/09/26 05:42:49;;;;;;;;;;;11.40;99.90;;;;;;4211642;28;19958;-62
2022/09/26 05:44:52;;;;;;;;;;;11.40;99.90;;;;;;4224534;27;20367;-61
2022/09/26 05:46:55;;;;;;;;;;;11.40;99.90;;;;;;4227613;28;19916;-62
2022/09/26 05:48:56;;;;;;;;;;;11.40;99.90;;;;;;4227607;28;19976;-60
2022/09/26 05:51:11;;;;;;;;;;;11.40;99.90;;;;;;4228954;28;19911;-60
2022/09/26 05:53:12;;;;;;;;;;;11.50;99.90;;;;;;4226360;28;19996;-61
2022/09/26 05:55:13;;;;;;;;;;;11.50;99.90;;;;;;4229030;28;19974;-59
2022/09/26 05:57:14;;;;;;;;;;;11.50;99.90;;;;;;4227341;28;19923;-62
2022/09/26 05:59:15;;;;;;;;;;;11.50;99.90;;;;;;4228226;28;19919;-60
2022/09/26 06:01:17;;;;;;;;;;;11.50;99.90;;;;;;4228430;27;19907;-60
2022/09/26 06:03:18;;;;;;;;;;;11.60;99.90;;;;;;4228781;28;19916;-61
2022/09/26 06:05:19;;;;;;;;;;;11.80;99.90;;;;;;4227766;28;19907;-62
2022/09/26 06:07:20;;;;;;;;;;;12.10;99.90;;;;;;4228306;28;19915;-65
2022/09/26 06:09:21;;;;;;;;;;;12.50;99.90;;;;;;4227444;28;19949;-61
2022/09/26 06:11:26;;;;;;;;;;;13.20;99.90;;;;;;4227616;28;19916;-63
2022/09/26 06:13:28;;;;;;;;;;;13.80;99.90;;;;;;4227839;28;19916;-61
2022/09/26 06:15:29;;;;;;;;;;;14.10;99.90;;;;;;4227723;28;19912;-62
2022/09/26 06:17:30;;;;;;;;;;;14.90;99.90;;;;;;4228286;28;20269;-63
2022/09/26 06:19:31;;;;;;;;;;;15.20;99.90;;;;;;4227314;28;19916;-62
2022/09/26 06:21:32;;;;;;;;;;;15.20;99.90;;;;;;4229155;27;19969;-61
2022/09/26 06:23:34;;;;;;;;;;;14.90;99.90;;;;;;4244791;27;19972;-62
2022/09/26 06:25:35;;;;;;;;;;;14.60;99.90;;;;;;4240811;27;19941;-62
2022/09/26 06:27:37;;;;;;;;;;;14.40;99.90;;;;;;4227398;28;19919;-63
2022/09/26 06:29:39;;;;;;;;;;;14.20;99.90;;;;;;4228366;28;19916;-62
2022/09/26 06:31:40;;;;;;;;;;;14.00;99.90;;;;;;4227513;28;20354;-61
2022/09/26 06:33:41;;;;;;;;;;;13.90;99.90;;;;;;4228886;28;19959;-61
2022/09/26 06:35:42;;;;;;;;;;;13.90;99.90;;;;;;4227431;28;19915;-62
2022/09/26 06:37:43;;;;;;;;;;;13.80;99.90;;;;;;4228517;28;20364;-64
2022/09/26 06:39:44;;;;;;;;;;;13.80;99.90;;;;;;4227530;28;19919;-62
2022/09/26 06:41:45;;;;;;;;;;;13.70;99.90;;;;;;4227412;28;19922;-62
2022/09/26 06:43:46;;;;;;;;;;;13.70;99.90;;;;;;4227807;28;20269;-62
2022/09/26 06:45:50;;;;;;;;;;;13.70;99.90;;;;;;4227263;28;19912;-61
2022/09/26 06:47:52;;;;;;;;;;;13.70;99.90;;;;;;4227861;28;19965;-61
2022/09/26 06:49:52;;;;;;;;;;;13.50;99.90;;;;;;4226383;28;19915;-61
2022/09/26 06:51:53;;;;;;;;;;;13.50;99.90;;;;;;4228203;28;19930;-62
2022/09/26 06:53:54;;;;;;;;;;;13.50;99.90;;;;;;4227129;28;20326;-61
2022/09/26 06:55:57;;;;;;;;;;;13.50;99.90;;;;;;4227374;28;19908;-63
2022/09/26 06:57:58;;;;;;;;;;;13.60;99.90;;;;;;4226663;28;19969;-61
2022/09/26 06:59:59;;;;;;;;;;;13.60;99.90;;;;;;4228571;28;19999;-63
2022/09/26 07:02:00;;;;;;;;;;;13.70;99.90;;;;;;4227204;28;19954;-63
2022/09/26 07:04:01;;;;;;;;;;;13.80;99.90;;;;;;4227801;28;19911;-61
2022/09/26 07:06:02;;;;;;;;;;;13.80;99.90;;;;;;4226863;28;19953;-61
2022/09/26 07:08:03;;;;;;;;;;;13.90;99.90;;;;;;4226838;28;19911;-62
2022/09/26 07:10:04;;;;;;;;;;;14.00;99.90;;;;;;4226218;28;19929;-61
2022/09/26 07:12:05;;;;;;;;;;;14.00;99.90;;;;;;4226750;28;19912;-62
2022/09/26 07:14:06;;;;;;;;;;;14.10;99.90;;;;;;4225011;28;20329;-61
2022/09/26 07:16:07;;;;;;;;;;;14.20;99.90;;;;;;4227107;28;19923;-61
2022/09/26 07:18:08;;;;;;;;;;;14.10;99.90;;;;;;4227634;28;19915;-61
2022/09/26 07:20:14;;;;;;;;;;;14.20;99.90;;;;;;4226700;28;19961;-62
2022/09/26 07:22:15;;;;;;;;;;;14.10;99.90;;;;;;4227590;28;19961;-61
2022/09/26 07:24:16;;;;;;;;;;;14.20;99.90;;;;;;4226876;28;19942;-61
2022/09/26 07:26:17;;;;;;;;;;;14.30;99.90;;;;;;4227514;28;19912;-61
2022/09/26 07:28:18;;;;;;;;;;;14.20;99.90;;;;;;4225995;28;19912;-59
2022/09/26 07:30:19;;;;;;;;;;;14.20;99.90;;;;;;4228403;28;19920;-61
2022/09/26 07:32:20;;;;;;;;;;;14.30;99.90;;;;;;4227085;28;19912;-62
2022/09/26 07:34:24;;;;;;;;;;;14.30;99.90;;;;;;4243094;28;19917;-61
2022/09/26 07:36:25;;;;;;;;;;;14.30;99.90;;;;;;4227348;28;19908;-61
2022/09/26 07:38:26;;;;;;;;;;;14.20;99.90;;;;;;4227744;28;19960;-61
2022/09/26 07:40:27;;;;;;;;;;;14.20;99.90;;;;;;4227122;28;20401;-61
2022/09/26 07:42:28;;;;;;;;;;;14.20;99.90;;;;;;4227207;28;19911;-61
2022/09/26 07:44:29;;;;;;;;;;;14.20;99.90;;;;;;4226896;28;19922;-61
2022/09/26 07:51:12;;;;;;;;;;;14.40;99.90;;;;;;4227927;28;20047;-61
2022/09/26 07:53:13;;;;;;;;;;;14.50;99.90;;;;;;4226969;28;19925;-61
2022/09/26 07:55:15;;;;;;;;;;;14.60;99.90;;;;;;4229054;28;19927;-61
2022/09/26 07:57:18;;;;;;;;;;;14.60;99.90;;;;;;4230040;28;19920;-61
2022/09/26 07:59:20;;;;;;;;;;;14.70;99.90;;;;;;4230539;28;19912;-61
2022/09/26 08:01:21;;;;;;;;;;;14.70;99.90;;;;;;4230877;28;19908;-62
2022/09/26 08:03:27;;;;;;;;;;;14.80;99.90;;;;;;4229355;28;20477;-61
2022/09/26 08:05:28;;;;;;;;;;;14.90;99.90;;;;;;4230724;27;20385;-62
2022/09/26 08:07:30;;;;;;;;;;;15.00;99.90;;;;;;4230310;27;20352;-61
2022/09/26 08:09:31;;;;;;;;;;;15.10;99.90;;;;;;4229617;28;19916;-60
2022/09/26 08:11:32;;;;;;;;;;;15.20;99.90;;;;;;4228410;27;19984;-61
2022/09/26 08:13:33;;;;;;;;;;;15.30;99.90;;;;;;4229330;28;19915;-61
2022/09/26 08:15:35;;;;;;;;;;;15.30;99.90;;;;;;4228937;28;19916;-62
2022/09/26 08:17:37;;;;;;;;;;;15.30;99.90;;;;;;4230505;28;19916;-61
2022/09/26 08:19:37;;;;;;;;;;;15.30;99.90;;;;;;4229231;28;19956;-62
2022/09/26 08:21:38;;;;;;;;;;;15.30;99.90;;;;;;4230546;28;20363;-63
2022/09/26 08:23:40;;;;;;;;;;;15.40;99.90;;;;;;4229505;28;19927;-61
2022/09/26 08:25:41;;;;;;;;;;;15.50;99.90;;;;;;4230475;27;20261;-62
2022/09/26 08:27:42;;;;;;;;;;;15.50;99.90;;;;;;4228770;27;19957;-61
2022/09/26 08:29:47;;;;;;;;;;;15.50;99.90;;;;;;4229563;27;19924;-61
2022/09/26 08:31:50;;;;;;;;;;;15.50;99.90;;;;;;4230373;27;19937;-60
2022/09/26 08:33:50;;;;;;;;;;;15.50;99.90;;;;;;4228884;28;20379;-62
2022/09/26 08:35:51;;;;;;;;;;;15.60;99.90;;;;;;4229356;28;19922;-63
2022/09/26 08:37:53;;;;;;;;;;;15.60;99.90;;;;;;4229124;28;19972;-62
2022/09/26 08:39:53;;;;;;;;;;;15.70;99.90;;;;;;4230262;28;19953;-61
2022/09/26 08:42:07;;;;;;;;;;;15.80;99.90;;;;;;4228929;28;19927;-62
2022/09/26 08:44:23;;;;;;;;;;;15.80;99.90;;;;;;4230193;28;20278;-62
2022/09/26 08:48:55;;;;;;;;;;;15.90;99.90;;;;;;4221298;28;19912;-60
2022/09/26 08:50:58;;;;;;;;;;;15.90;99.90;;;;;;4228207;28;19920;-61
2022/09/26 08:53:04;;;;;;;;;;;15.90;99.90;;;;;;4229981;28;19952;-62
2022/09/26 08:55:10;;;;;;;;;;;15.90;99.90;;;;;;4229262;28;19912;-61
2022/09/26 08:57:26;;;;;;;;;;;16.00;99.90;;;;;;4229965;28;20357;-62
2022/09/26 08:59:34;;;;;;;;;;;16.00;99.90;;;;;;4227691;27;19916;-61
2022/09/26 09:01:38;;;;;;;;;;;16.20;99.90;;;;;;4230151;28;19911;-62
2022/09/26 09:04:02;;;;;;;;;;;16.30;99.90;;;;;;4229059;28;19908;-62
2022/09/26 09:06:09;;;;;;;;;;;16.40;99.90;;;;;;4220907;27;19924;-61
2022/09/26 09:08:12;;;;;;;;;;;16.60;99.90;;;;;;4228559;28;19977;-61
2022/09/26 09:10:15;;;;;;;;;;;16.70;99.90;;;;;;4239049;27;19924;-61
2022/09/26 09:12:21;;;;;;;;;;;16.80;99.90;;;;;;4227781;28;19952;-61
2022/09/26 09:14:28;;;;;;;;;;;17.00;99.90;;;;;;4229911;28;19977;-62
2022/09/26 09:16:31;;;;;;;;;;;17.20;99.90;;;;;;4227056;28;19988;-61
2022/09/26 09:18:43;;;;;;;;;;;17.30;99.90;;;;;;4223857;28;19968;-61
2022/09/26 09:21:00;;;;;;;;;;;17.30;99.90;;;;;;4228210;28;20205;-62
2022/09/26 09:23:07;;;;;;;;;;;17.50;99.90;;;;;;4229465;28;19957;-62
2022/09/26 09:25:14;;;;;;;;;;;17.60;99.90;;;;;;4227960;28;19937;-62
2022/09/26 09:27:18;;;;;;;;;;;17.70;99.90;;;;;;4229612;28;19912;-61
2022/09/26 09:29:37;;;;;;;;;;;17.80;99.90;;;;;;4228160;28;20329;-60
2022/09/26 09:31:40;;;;;;;;;;;17.90;99.90;;;;;;4229189;28;20301;-61
2022/09/26 09:33:42;;;;;;;;;;;18.10;99.90;;;;;;4228404;28;19965;-62
2022/09/26 09:35:43;;;;;;;;;;;18.30;99.90;;;;;;4229296;28;20349;-63
2022/09/26 09:37:49;;;;;;;;;;;18.40;99.90;;;;;;4228353;27;19908;-62
2022/09/26 09:39:50;;;;;;;;;;;18.50;99.90;;;;;;4229225;28;19911;-61
2022/09/26 09:41:54;;;;;;;;;;;18.50;99.90;;;;;;4228199;27;20292;-62
2022/09/26 09:43:56;;;;;;;;;;;18.50;99.90;;;;;;4226049;28;19915;-64
2022/09/26 09:46:08;;;;;;;;;;;18.50;99.90;;;;;;4231697;27;20427;-61
2022/09/26 09:48:10;;;;;;;;;;;18.50;99.90;;;;;;4224934;28;19931;-62
2022/09/26 09:50:22;;;;;;;;;;;18.50;99.90;;;;;;4226562;28;19998;-62
2022/09/26 09:52:38;;;;;;;;;;;18.50;99.90;;;;;;4227847;28;20605;-63
2022/09/26 09:54:51;;;;;;;;;;;18.50;99.90;;;;;;4226961;28;19911;-63
2022/09/26 09:57:07;;;;;;;;;;;18.50;99.90;;;;;;4225625;28;20333;-65
2022/09/26 09:59:08;;;;;;;;;;;18.60;99.90;;;;;;4228234;28;19912;-69
2022/09/26 10:01:17;;;;;;;;;;;18.70;99.90;;;;;;4228628;28;19992;-62
2022/09/26 10:03:26;;;;;;;;;;;18.90;99.90;;;;;;4226579;28;19912;-63
2022/09/26 10:05:36;;;;;;;;;;;19.00;99.90;;;;;;4228157;28;20343;-62
2022/09/26 10:07:37;;;;;;;;;;;19.20;99.90;;;;;;4227472;28;19919;-63
2022/09/26 10:09:40;;;;;;;;;;;19.30;99.90;;;;;;4227950;28;20367;-62
2022/09/26 10:11:41;;;;;;;;;;;19.30;99.90;;;;;;4227469;28;19911;-63
2022/09/26 10:13:43;;;;;;;;;;;19.30;99.90;;;;;;4228257;28;19915;-61
2022/09/26 10:15:49;;;;;;;;;;;19.30;99.90;;;;;;4227085;28;19916;-65
2022/09/26 10:18:00;;;;;;;;;;;19.40;99.90;;;;;;4227150;28;19916;-62
2022/09/26 10:20:00;;;;;;;;;;;19.60;99.90;;;;;;4226984;28;19965;-62
2022/09/26 10:22:02;;;;;;;;;;;19.80;99.90;;;;;;4227475;28;19953;-61
2022/09/26 10:24:04;;;;;;;;;;;20.00;99.90;;;;;;4226434;28;19972;-62
2022/09/26 10:26:07;;;;;;;;;;;20.10;99.90;;;;;;4226690;28;19941;-62
2022/09/26 10:28:20;;;;;;;;;;;20.20;99.90;;;;;;4228612;28;19960;-64
2022/09/26 10:30:25;;;;;;;;;;;20.30;99.90;;;;;;4227415;28;19923;-62
2022/09/26 10:32:27;;;;;;;;;;;20.20;99.90;;;;;;4228582;28;20379;-61
2022/09/26 10:34:30;;;;;;;;;;;20.10;99.90;;;;;;4221427;28;20260;-62
2022/09/26 10:36:32;;;;;;;;;;;20.00;99.90;;;;;;4225073;28;20292;-61
2022/09/26 10:40:43;;;;;;;;;;;19.90;99.90;;;;;;4225528;28;19933;-60
2022/09/26 10:41:00;;;;;;;;;;;19.80;99.90;;;;;;4222943;28;19964;-58
2022/09/26 10:43:21;;;;;;;;;;;19.60;99.90;;;;;;4226700;28;19911;-61
2022/09/26 10:45:28;;;;;;;;;;;19.50;99.90;;;;;;4227618;28;19938;-60
2022/09/26 10:47:29;;;;;;;;;;;19.50;99.90;;;;;;4226207;28;19972;-60
2022/09/26 10:49:35;;;;;;;;;;;19.50;99.90;;;;;;4224260;28;19945;-60
2022/09/26 10:51:41;;;;;;;;;;;19.40;99.90;;;;;;4221655;28;19969;-61
2022/09/26 10:53:43;;;;;;;;;;;19.40;99.90;;;;;;4228688;28;20322;-60
2022/09/26 10:55:50;;;;;;;;;;;19.20;99.90;;;;;;4226032;28;19969;-61
2022/09/26 10:57:55;;;;;;;;;;;18.90;99.90;;;;;;4227396;28;19968;-59
2022/09/26 10:59:57;;;;;;;;;;;18.60;99.90;;;;;;4227076;28;19919;-61
2022/09/26 11:02:01;;;;;;;;;;;18.40;99.90;;;;;;4227623;28;20018;-60
2022/09/26 11:04:11;;;;;;;;;;;18.20;99.90;;;;;;4226275;28;20432;-60
2022/09/26 11:06:30;;;;;;;;;;;18.10;99.90;;;;;;4227546;28;19984;-58
2022/09/26 11:08:33;;;;;;;;;;;18.00;99.90;;;;;;4227101;28;19912;-60
2022/09/26 11:10:37;;;;;;;;;;;17.80;99.90;;;;;;4227283;28;19993;-60
2022/09/26 11:12:53;;;;;;;;;;;17.60;99.90;;;;;;4225707;28;19915;-60
2022/09/26 11:14:58;;;;;;;;;;;17.40;99.90;;;;;;4228226;28;19908;-61
2022/09/26 11:17:01;;;;;;;;;;;17.20;99.90;;;;;;4226417;28;19912;-60
2022/09/26 11:19:09;;;;;;;;;;;16.90;99.90;;;;;;4225473;28;19915;-60
2022/09/26 11:21:33;;;;;;;;;;;16.70;99.90;;;;;;4226388;28;19916;-59
2022/09/26 11:23:39;;;;;;;;;;;16.60;99.90;;;;;;4227133;28;19961;-60
2022/09/26 11:26:05;;;;;;;;;;;16.50;99.90;;;;;;4225159;28;20329;-58
2022/09/26 11:28:20;;;;;;;;;;;16.40;99.90;;;;;;4216668;28;20367;-60
2022/09/26 11:30:22;;;;;;;;;;;16.30;99.90;;;;;;4228764;28;19949;-61
2022/09/26 11:32:42;;;;;;;;;;;16.30;99.90;;;;;;4230587;27;20313;-61
2022/09/26 11:34:43;;;;;;;;;;;16.20;99.90;;;;;;4229038;28;20039;-60
2022/09/26 11:37:03;;;;;;;;;;;16.10;99.90;;;;;;4230761;28;19965;-60
2022/09/26 11:39:24;;;;;;;;;;;16.00;99.90;;;;;;4228609;28;19965;-61
2022/09/26 11:41:37;;;;;;;;;;;16.00;99.90;;;;;;4225470;28;20406;-61
2022/09/26 11:43:43;;;;;;;;;;;15.80;99.90;;;;;;4225700;28;19908;-61
2022/09/26 11:45:47;;;;;;;;;;;15.80;99.90;;;;;;4231094;27;19965;-61
2022/09/26 11:48:01;;;;;;;;;;;15.80;99.90;;;;;;4227457;28;19908;-62
2022/09/26 11:50:02;;;;;;;;;;;15.80;99.90;;;;;;4230471;28;19965;-61
2022/09/26 11:52:21;;;;;;;;;;;15.90;99.90;;;;;;4229549;28;19915;-61
2022/09/26 11:54:36;;;;;;;;;;;16.00;99.90;;;;;;4230659;28;19965;-60
2022/09/26 11:56:55;;;;;;;;;;;16.00;99.90;;;;;;4229280;28;19908;-61
2022/09/26 11:58:58;;;;;;;;;;;16.20;99.90;;;;;;4230455;28;19957;-60
2022/09/26 12:00:59;;;;;;;;;;;16.30;99.90;;;;;;4230356;28;20417;-61
2022/09/26 12:03:00;;;;;;;;;;;16.50;99.90;;;;;;4230512;28;19911;-60
2022/09/26 12:05:23;;;;;;;;;;;16.70;99.90;;;;;;4229111;28;19969;-60
2022/09/26 12:07:24;;;;;;;;;;;16.90;99.90;;;;;;4230400;28;19912;-61
2022/09/26 12:09:25;;;;;;;;;;;17.00;99.90;;;;;;4228860;28;19923;-61
2022/09/26 12:11:42;;;;;;;;;;;17.10;99.90;;;;;;4229643;28;19911;-62
2022/09/26 12:13:53;;;;;;;;;;;17.20;99.90;;;;;;4229484;28;20271;-61